DETCC EDAH-EDDH
Flight info
| Callsign | DETCC |
|---|---|
| Flight time | 1h 42m |
| Altitude | 2000 |
| Route | EDAH EDDH |
| Aircraft | P28A/L-SDFRY/C |
Departure
| Time | 2026-04-22 17:43 |
|---|---|
| Airport | Heringsdorf Airport (EDAH) |
Arrival
| Time | 2026-04-22 19:26 |
|---|---|
| Airport | Hamburg Helmut Schmidt Airport (EDDH) |
| Time | Latitude | Longitude | Altitude | Speed | Heading |
|---|---|---|---|---|---|
| 2026-04-22 17:19 | 53.87823 | 14.14239 | 62 ft | 0 kts | 25° |
| 2026-04-22 17:36 | 53.87830 | 14.14267 | 60 ft | 8 kts | 108° |
| 2026-04-22 17:37 | 53.87807 | 14.14378 | 62 ft | 14 kts | 96° |
| 2026-04-22 17:37 | 53.87796 | 14.14584 | 62 ft | 20 kts | 96° |
| 2026-04-22 17:37 | 53.87784 | 14.14812 | 66 ft | 19 kts | 95° |
| 2026-04-22 17:37 | 53.87771 | 14.15045 | 68 ft | 20 kts | 95° |
| 2026-04-22 17:38 | 53.87765 | 14.15229 | 69 ft | 8 kts | 51° |
| 2026-04-22 17:38 | 53.87792 | 14.15248 | 69 ft | 0 kts | 15° |
| 2026-04-22 17:42 | 53.87836 | 14.15269 | 70 ft | 13 kts | 15° |
| 2026-04-22 17:42 | 53.87872 | 14.15228 | 69 ft | 2 kts | 282° |
| 2026-04-22 17:42 | 53.87919 | 14.14940 | 62 ft | 52 kts | 286° |
| 2026-04-22 17:43 | 53.88034 | 14.14215 | 178 ft | 73 kts | 286° |
| 2026-04-22 17:43 | 53.88112 | 14.13298 | 328 ft | 85 kts | 265° |
| 2026-04-22 17:43 | 53.87832 | 14.12352 | 525 ft | 94 kts | 248° |
| 2026-04-22 17:43 | 53.87533 | 14.11375 | 726 ft | 94 kts | 251° |
| 2026-04-22 17:44 | 53.87256 | 14.10346 | 860 ft | 100 kts | 251° |
| 2026-04-22 17:44 | 53.86954 | 14.09321 | 1083 ft | 94 kts | 255° |
| 2026-04-22 17:44 | 53.86649 | 14.08320 | 1219 ft | 95 kts | 255° |
| 2026-04-22 17:44 | 53.86363 | 14.07322 | 1356 ft | 94 kts | 258° |
| 2026-04-22 17:45 | 53.86098 | 14.06287 | 1457 ft | 98 kts | 258° |
| 2026-04-22 17:45 | 53.85819 | 14.05223 | 1565 ft | 99 kts | 258° |
| 2026-04-22 17:45 | 53.85539 | 14.04147 | 1703 ft | 99 kts | 260° |
| 2026-04-22 17:45 | 53.85304 | 14.03074 | 1840 ft | 97 kts | 265° |
| 2026-04-22 17:46 | 53.85102 | 14.01990 | 1955 ft | 97 kts | 269° |
| 2026-04-22 17:46 | 53.84945 | 14.00873 | 1954 ft | 96 kts | 269° |
| 2026-04-22 17:46 | 53.84798 | 13.99784 | 1950 ft | 93 kts | 272° |
| 2026-04-22 17:46 | 53.84671 | 13.98724 | 1948 ft | 92 kts | 272° |
| 2026-04-22 17:47 | 53.84537 | 13.97676 | 1950 ft | 91 kts | 272° |
| 2026-04-22 17:47 | 53.84412 | 13.96635 | 1944 ft | 90 kts | 272° |
| 2026-04-22 17:47 | 53.84296 | 13.95599 | 1946 ft | 89 kts | 272° |
| 2026-04-22 17:47 | 53.84189 | 13.94566 | 1934 ft | 86 kts | 280° |
| 2026-04-22 17:48 | 53.84397 | 13.93709 | 1940 ft | 78 kts | 316° |
| 2026-04-22 17:48 | 53.84722 | 13.92972 | 1943 ft | 84 kts | 297° |
| 2026-04-22 17:48 | 53.84739 | 13.91931 | 1942 ft | 92 kts | 281° |
| 2026-04-22 17:48 | 53.84770 | 13.90857 | 1948 ft | 91 kts | 283° |
| 2026-04-22 17:49 | 53.84676 | 13.89752 | 1938 ft | 102 kts | 260° |
| 2026-04-22 17:49 | 53.84388 | 13.88653 | 1944 ft | 101 kts | 261° |
| 2026-04-22 17:49 | 53.84114 | 13.87548 | 1940 ft | 102 kts | 259° |
| 2026-04-22 17:49 | 53.83840 | 13.86453 | 1944 ft | 101 kts | 260° |
| 2026-04-22 17:50 | 53.83567 | 13.85367 | 1943 ft | 100 kts | 260° |
| 2026-04-22 17:50 | 53.83294 | 13.84282 | 1949 ft | 99 kts | 260° |
| 2026-04-22 17:50 | 53.83026 | 13.83209 | 1949 ft | 99 kts | 261° |
| 2026-04-22 17:50 | 53.82756 | 13.82135 | 1947 ft | 99 kts | 261° |
| 2026-04-22 17:51 | 53.82488 | 13.81065 | 1948 ft | 98 kts | 261° |
| 2026-04-22 17:51 | 53.82221 | 13.80000 | 1952 ft | 99 kts | 261° |
| 2026-04-22 17:51 | 53.81954 | 13.78925 | 1945 ft | 99 kts | 261° |
| 2026-04-22 17:51 | 53.81684 | 13.77851 | 1952 ft | 99 kts | 261° |
| 2026-04-22 17:52 | 53.81418 | 13.76788 | 1949 ft | 99 kts | 260° |
| 2026-04-22 17:52 | 53.81151 | 13.75721 | 1949 ft | 99 kts | 260° |
| 2026-04-22 17:52 | 53.80882 | 13.74649 | 1955 ft | 99 kts | 260° |
| 2026-04-22 17:52 | 53.80612 | 13.73575 | 1955 ft | 99 kts | 260° |
| 2026-04-22 17:53 | 53.80348 | 13.72513 | 1958 ft | 97 kts | 261° |
| 2026-04-22 17:53 | 53.80083 | 13.71463 | 1954 ft | 96 kts | 260° |
| 2026-04-22 17:53 | 53.79820 | 13.70421 | 1957 ft | 97 kts | 261° |
| 2026-04-22 17:53 | 53.79555 | 13.69360 | 1962 ft | 98 kts | 262° |
| 2026-04-22 17:54 | 53.79290 | 13.68306 | 1963 ft | 97 kts | 261° |
| 2026-04-22 17:54 | 53.79026 | 13.67253 | 1959 ft | 97 kts | 261° |
| 2026-04-22 17:54 | 53.78761 | 13.66197 | 1956 ft | 97 kts | 261° |
| 2026-04-22 17:54 | 53.78500 | 13.65154 | 1962 ft | 95 kts | 261° |
| 2026-04-22 17:55 | 53.78241 | 13.64125 | 1951 ft | 95 kts | 261° |
| 2026-04-22 17:55 | 53.78006 | 13.63092 | 1962 ft | 94 kts | 262° |
| 2026-04-22 17:55 | 53.77771 | 13.62067 | 1963 ft | 95 kts | 262° |
| 2026-04-22 17:55 | 53.77535 | 13.61028 | 1967 ft | 95 kts | 262° |
| 2026-04-22 17:56 | 53.77295 | 13.59988 | 1973 ft | 96 kts | 262° |
| 2026-04-22 17:56 | 53.77048 | 13.58942 | 1973 ft | 96 kts | 262° |
| 2026-04-22 17:56 | 53.76800 | 13.57883 | 1976 ft | 97 kts | 262° |
| 2026-04-22 17:56 | 53.76550 | 13.56817 | 1977 ft | 98 kts | 262° |
| 2026-04-22 17:57 | 53.76301 | 13.55746 | 1980 ft | 98 kts | 262° |
| 2026-04-22 17:57 | 53.76052 | 13.54654 | 1981 ft | 100 kts | 262° |
| 2026-04-22 17:57 | 53.75836 | 13.53539 | 1969 ft | 97 kts | 270° |
| 2026-04-22 17:57 | 53.75961 | 13.52503 | 1967 ft | 88 kts | 302° |
| 2026-04-22 17:58 | 53.76236 | 13.51591 | 1972 ft | 87 kts | 300° |
| 2026-04-22 17:58 | 53.76491 | 13.50675 | 1967 ft | 86 kts | 301° |
| 2026-04-22 17:58 | 53.76737 | 13.49769 | 1968 ft | 85 kts | 300° |
| 2026-04-22 17:58 | 53.76982 | 13.48860 | 1967 ft | 85 kts | 300° |
| 2026-04-22 17:59 | 53.77069 | 13.47842 | 1965 ft | 93 kts | 277° |
| 2026-04-22 17:59 | 53.77031 | 13.46761 | 1972 ft | 92 kts | 280° |
| 2026-04-22 17:59 | 53.77008 | 13.45688 | 1973 ft | 91 kts | 279° |
| 2026-04-22 17:59 | 53.76991 | 13.44633 | 1966 ft | 87 kts | 283° |
| 2026-04-22 18:00 | 53.77044 | 13.43958 | 1970 ft | 86 kts | 287° |
| 2026-04-22 18:00 | 53.77130 | 13.42598 | 1974 ft | 89 kts | 286° |
| 2026-04-22 18:00 | 53.77197 | 13.41539 | 1973 ft | 92 kts | 285° |
| 2026-04-22 18:00 | 53.77263 | 13.40487 | 1978 ft | 92 kts | 285° |
| 2026-04-22 18:01 | 53.77330 | 13.39413 | 1980 ft | 92 kts | 284° |
| 2026-04-22 18:01 | 53.77397 | 13.38342 | 1974 ft | 91 kts | 284° |
| 2026-04-22 18:01 | 53.77463 | 13.37272 | 1970 ft | 92 kts | 284° |
| 2026-04-22 18:01 | 53.77530 | 13.36199 | 1976 ft | 92 kts | 284° |
| 2026-04-22 18:02 | 53.77596 | 13.35131 | 1976 ft | 90 kts | 284° |
| 2026-04-22 18:02 | 53.77661 | 13.34084 | 1969 ft | 88 kts | 284° |
| 2026-04-22 18:02 | 53.77725 | 13.33055 | 1977 ft | 88 kts | 285° |
| 2026-04-22 18:02 | 53.77791 | 13.32038 | 1969 ft | 88 kts | 285° |
| 2026-04-22 18:03 | 53.77851 | 13.31007 | 1975 ft | 88 kts | 285° |
| 2026-04-22 18:03 | 53.77916 | 13.29983 | 1978 ft | 88 kts | 285° |
| 2026-04-22 18:03 | 53.77980 | 13.28959 | 1971 ft | 88 kts | 285° |
| 2026-04-22 18:03 | 53.78045 | 13.27927 | 1972 ft | 89 kts | 285° |
| 2026-04-22 18:04 | 53.78110 | 13.26885 | 1980 ft | 89 kts | 284° |
| 2026-04-22 18:04 | 53.78176 | 13.25836 | 1980 ft | 91 kts | 284° |
| 2026-04-22 18:04 | 53.78242 | 13.24765 | 1982 ft | 93 kts | 284° |
| 2026-04-22 18:04 | 53.78309 | 13.23677 | 1985 ft | 93 kts | 284° |
| 2026-04-22 18:05 | 53.78378 | 13.22575 | 1981 ft | 95 kts | 284° |
| 2026-04-22 18:05 | 53.78445 | 13.21464 | 1987 ft | 95 kts | 284° |
| 2026-04-22 18:05 | 53.78515 | 13.20355 | 1985 ft | 95 kts | 284° |
| 2026-04-22 18:05 | 53.78585 | 13.19241 | 1984 ft | 95 kts | 285° |
| 2026-04-22 18:06 | 53.78652 | 13.18140 | 1984 ft | 95 kts | 284° |
| 2026-04-22 18:06 | 53.78721 | 13.17032 | 1988 ft | 94 kts | 284° |
| 2026-04-22 18:06 | 53.78789 | 13.15936 | 1983 ft | 93 kts | 284° |
| 2026-04-22 18:06 | 53.78856 | 13.14858 | 1977 ft | 91 kts | 284° |
| 2026-04-22 18:07 | 53.78921 | 13.13805 | 1982 ft | 89 kts | 284° |
| 2026-04-22 18:07 | 53.78986 | 13.12768 | 1976 ft | 88 kts | 285° |
| 2026-04-22 18:07 | 53.79051 | 13.11737 | 1968 ft | 88 kts | 284° |
| 2026-04-22 18:07 | 53.79115 | 13.10706 | 1976 ft | 88 kts | 285° |
| 2026-04-22 18:08 | 53.79179 | 13.09672 | 1983 ft | 89 kts | 285° |
| 2026-04-22 18:08 | 53.79245 | 13.08621 | 1982 ft | 91 kts | 285° |
| 2026-04-22 18:08 | 53.79311 | 13.07556 | 1992 ft | 93 kts | 285° |
| 2026-04-22 18:08 | 53.79379 | 13.06461 | 1990 ft | 94 kts | 285° |
| 2026-04-22 18:09 | 53.79447 | 13.05360 | 1993 ft | 94 kts | 285° |
| 2026-04-22 18:09 | 53.79514 | 13.04257 | 1991 ft | 94 kts | 285° |
| 2026-04-22 18:09 | 53.79585 | 13.03160 | 1990 ft | 94 kts | 284° |
| 2026-04-22 18:09 | 53.79651 | 13.02074 | 1988 ft | 92 kts | 284° |
| 2026-04-22 18:10 | 53.79718 | 13.01001 | 1988 ft | 91 kts | 284° |
| 2026-04-22 18:10 | 53.79786 | 12.99929 | 1984 ft | 92 kts | 284° |
| 2026-04-22 18:10 | 53.79852 | 12.98846 | 1987 ft | 93 kts | 284° |
| 2026-04-22 18:10 | 53.79920 | 12.97758 | 1988 ft | 93 kts | 284° |
| 2026-04-22 18:11 | 53.79987 | 12.96673 | 1988 ft | 93 kts | 284° |
| 2026-04-22 18:11 | 53.80054 | 12.95583 | 1987 ft | 93 kts | 285° |
| 2026-04-22 18:11 | 53.80122 | 12.94494 | 1985 ft | 93 kts | 285° |
| 2026-04-22 18:11 | 53.80191 | 12.93398 | 1990 ft | 94 kts | 285° |
| 2026-04-22 18:12 | 53.80259 | 12.92299 | 1992 ft | 94 kts | 284° |
| 2026-04-22 18:12 | 53.80327 | 12.91202 | 1993 ft | 94 kts | 284° |
| 2026-04-22 18:12 | 53.80372 | 12.90475 | 1987 ft | 94 kts | 285° |
| 2026-04-22 18:12 | 53.80463 | 12.88992 | 1990 ft | 95 kts | 285° |
| 2026-04-22 18:13 | 53.80535 | 12.87877 | 1990 ft | 96 kts | 284° |
| 2026-04-22 18:13 | 53.80603 | 12.86758 | 1983 ft | 95 kts | 284° |
| 2026-04-22 18:13 | 53.80670 | 12.85664 | 1986 ft | 94 kts | 284° |
| 2026-04-22 18:13 | 53.80740 | 12.84563 | 1990 ft | 94 kts | 284° |
| 2026-04-22 18:14 | 53.80808 | 12.83463 | 1989 ft | 94 kts | 284° |
| 2026-04-22 18:14 | 53.80877 | 12.82347 | 1993 ft | 94 kts | 284° |
| 2026-04-22 18:14 | 53.80945 | 12.81261 | 1990 ft | 94 kts | 284° |
| 2026-04-22 18:14 | 53.81013 | 12.80158 | 1988 ft | 94 kts | 284° |
| 2026-04-22 18:15 | 53.80999 | 12.79035 | 1988 ft | 98 kts | 269° |
| 2026-04-22 18:15 | 53.80885 | 12.77895 | 1988 ft | 98 kts | 272° |
| 2026-04-22 18:15 | 53.80781 | 12.76744 | 1991 ft | 99 kts | 271° |
| 2026-04-22 18:15 | 53.80676 | 12.75586 | 1995 ft | 100 kts | 271° |
| 2026-04-22 18:16 | 53.80662 | 12.74431 | 1990 ft | 98 kts | 279° |
| 2026-04-22 18:16 | 53.80650 | 12.73281 | 1989 ft | 97 kts | 278° |
| 2026-04-22 18:16 | 53.80648 | 12.72145 | 1997 ft | 96 kts | 278° |
| 2026-04-22 18:16 | 53.80646 | 12.71015 | 2000 ft | 96 kts | 278° |
| 2026-04-22 18:17 | 53.80644 | 12.69865 | 2001 ft | 99 kts | 277° |
| 2026-04-22 18:17 | 53.80629 | 12.68696 | 1999 ft | 99 kts | 277° |
| 2026-04-22 18:17 | 53.80630 | 12.67535 | 1996 ft | 99 kts | 277° |
| 2026-04-22 18:17 | 53.80602 | 12.66388 | 1990 ft | 98 kts | 277° |
| 2026-04-22 18:18 | 53.80579 | 12.65237 | 1991 ft | 98 kts | 277° |
| 2026-04-22 18:18 | 53.80553 | 12.64084 | 1994 ft | 96 kts | 277° |
| 2026-04-22 18:18 | 53.80531 | 12.62984 | 1995 ft | 94 kts | 277° |
| 2026-04-22 18:18 | 53.80506 | 12.61885 | 1996 ft | 93 kts | 277° |
| 2026-04-22 18:19 | 53.80477 | 12.60786 | 1994 ft | 94 kts | 277° |
| 2026-04-22 18:19 | 53.80452 | 12.59681 | 1992 ft | 94 kts | 277° |
| 2026-04-22 18:19 | 53.80426 | 12.58569 | 1991 ft | 94 kts | 277° |
| 2026-04-22 18:19 | 53.80404 | 12.57462 | 1996 ft | 94 kts | 277° |
| 2026-04-22 18:20 | 53.80381 | 12.56348 | 1996 ft | 95 kts | 277° |
| 2026-04-22 18:20 | 53.80358 | 12.55222 | 1998 ft | 96 kts | 277° |
| 2026-04-22 18:20 | 53.80340 | 12.54101 | 1995 ft | 94 kts | 277° |
| 2026-04-22 18:20 | 53.80323 | 12.52987 | 1999 ft | 96 kts | 276° |
| 2026-04-22 18:21 | 53.80299 | 12.51851 | 1999 ft | 97 kts | 277° |
| 2026-04-22 18:21 | 53.80270 | 12.50713 | 1999 ft | 96 kts | 277° |
| 2026-04-22 18:21 | 53.80250 | 12.49588 | 1997 ft | 96 kts | 277° |
| 2026-04-22 18:21 | 53.80233 | 12.48469 | 1993 ft | 97 kts | 277° |
| 2026-04-22 18:22 | 53.80212 | 12.47325 | 1996 ft | 97 kts | 277° |
| 2026-04-22 18:22 | 53.80199 | 12.46181 | 1997 ft | 97 kts | 277° |
| 2026-04-22 18:22 | 53.80190 | 12.45040 | 1998 ft | 96 kts | 277° |
| 2026-04-22 18:22 | 53.80172 | 12.43903 | 1997 ft | 97 kts | 277° |
| 2026-04-22 18:23 | 53.80150 | 12.42761 | 1997 ft | 97 kts | 277° |
| 2026-04-22 18:23 | 53.80125 | 12.41616 | 2000 ft | 97 kts | 276° |
| 2026-04-22 18:23 | 53.80102 | 12.40467 | 1999 ft | 98 kts | 277° |
| 2026-04-22 18:24 | 53.80053 | 12.38157 | 2001 ft | 99 kts | 276° |
| 2026-04-22 18:24 | 53.80033 | 12.37008 | 1997 ft | 98 kts | 277° |
| 2026-04-22 18:24 | 53.80002 | 12.34729 | 1996 ft | 95 kts | 277° |
| 2026-04-22 18:25 | 53.79993 | 12.33612 | 1993 ft | 95 kts | 277° |
| 2026-04-22 18:25 | 53.79975 | 12.32504 | 1997 ft | 96 kts | 276° |
| 2026-04-22 18:25 | 53.79952 | 12.31371 | 1998 ft | 97 kts | 277° |
| 2026-04-22 18:26 | 53.79894 | 12.29092 | 1993 ft | 97 kts | 277° |
| 2026-04-22 18:26 | 53.79865 | 12.27949 | 1994 ft | 98 kts | 277° |
| 2026-04-22 18:26 | 53.79843 | 12.26805 | 2001 ft | 97 kts | 277° |
| 2026-04-22 18:26 | 53.79819 | 12.25668 | 2001 ft | 97 kts | 277° |
| 2026-04-22 18:27 | 53.79789 | 12.24522 | 1994 ft | 98 kts | 276° |
| 2026-04-22 18:27 | 53.79758 | 12.23378 | 2000 ft | 97 kts | 277° |
| 2026-04-22 18:27 | 53.79725 | 12.22233 | 1996 ft | 98 kts | 276° |
| 2026-04-22 18:27 | 53.79696 | 12.21085 | 1997 ft | 98 kts | 277° |
| 2026-04-22 18:28 | 53.79665 | 12.19927 | 1997 ft | 99 kts | 277° |
| 2026-04-22 18:28 | 53.79646 | 12.18752 | 1996 ft | 100 kts | 277° |
| 2026-04-22 18:28 | 53.79629 | 12.17571 | 1998 ft | 101 kts | 277° |
| 2026-04-22 18:28 | 53.79606 | 12.16389 | 2001 ft | 101 kts | 276° |
| 2026-04-22 18:29 | 53.79461 | 12.15243 | 1996 ft | 102 kts | 264° |
| 2026-04-22 18:29 | 53.79288 | 12.14088 | 1998 ft | 101 kts | 266° |
| 2026-04-22 18:29 | 53.79113 | 12.12936 | 1995 ft | 101 kts | 266° |
| 2026-04-22 18:29 | 53.78938 | 12.11781 | 1996 ft | 102 kts | 266° |
| 2026-04-22 18:30 | 53.78763 | 12.10611 | 1997 ft | 103 kts | 265° |
| 2026-04-22 18:30 | 53.78419 | 12.08274 | 2000 ft | 102 kts | 266° |
| 2026-04-22 18:30 | 53.78307 | 12.07504 | 1997 ft | 102 kts | 266° |
| 2026-04-22 18:31 | 53.78138 | 12.06343 | 1997 ft | 101 kts | 266° |
| 2026-04-22 18:31 | 53.77968 | 12.05188 | 1999 ft | 101 kts | 266° |
| 2026-04-22 18:31 | 53.77798 | 12.04032 | 1998 ft | 102 kts | 266° |
| 2026-04-22 18:31 | 53.77565 | 12.02503 | 2000 ft | 101 kts | 266° |
| 2026-04-22 18:32 | 53.77447 | 12.01725 | 1998 ft | 101 kts | 265° |
| 2026-04-22 18:32 | 53.77274 | 12.00572 | 1998 ft | 101 kts | 265° |
| 2026-04-22 18:32 | 53.77103 | 11.99425 | 1999 ft | 100 kts | 266° |
| 2026-04-22 18:32 | 53.76934 | 11.98281 | 2001 ft | 101 kts | 266° |
| 2026-04-22 18:33 | 53.76755 | 11.97122 | 2002 ft | 102 kts | 265° |
| 2026-04-22 18:33 | 53.76574 | 11.95962 | 2004 ft | 102 kts | 266° |
| 2026-04-22 18:33 | 53.76393 | 11.94795 | 2007 ft | 103 kts | 266° |
| 2026-04-22 18:33 | 53.76214 | 11.93631 | 2003 ft | 102 kts | 265° |
| 2026-04-22 18:34 | 53.76047 | 11.92471 | 2005 ft | 101 kts | 266° |
| 2026-04-22 18:34 | 53.75878 | 11.91318 | 2006 ft | 101 kts | 265° |
| 2026-04-22 18:34 | 53.75708 | 11.90169 | 2004 ft | 101 kts | 266° |
| 2026-04-22 18:34 | 53.75532 | 11.89032 | 2005 ft | 101 kts | 266° |
| 2026-04-22 18:35 | 53.75355 | 11.87877 | 2011 ft | 102 kts | 265° |
| 2026-04-22 18:35 | 53.75178 | 11.86709 | 2012 ft | 103 kts | 266° |
| 2026-04-22 18:35 | 53.74995 | 11.85545 | 2011 ft | 101 kts | 265° |
| 2026-04-22 18:35 | 53.74822 | 11.84390 | 2009 ft | 101 kts | 265° |
| 2026-04-22 18:36 | 53.74654 | 11.83231 | 2009 ft | 101 kts | 266° |
| 2026-04-22 18:36 | 53.74481 | 11.82100 | 2009 ft | 98 kts | 265° |
| 2026-04-22 18:36 | 53.74313 | 11.80985 | 2008 ft | 98 kts | 266° |
| 2026-04-22 18:36 | 53.74146 | 11.79849 | 2013 ft | 100 kts | 266° |
| 2026-04-22 18:37 | 53.73979 | 11.78700 | 2011 ft | 101 kts | 265° |
| 2026-04-22 18:37 | 53.73808 | 11.77549 | 2016 ft | 102 kts | 266° |
| 2026-04-22 18:37 | 53.73641 | 11.76389 | 2020 ft | 101 kts | 266° |
| 2026-04-22 18:37 | 53.73476 | 11.75232 | 2018 ft | 101 kts | 266° |
| 2026-04-22 18:38 | 53.73302 | 11.74080 | 2015 ft | 101 kts | 265° |
| 2026-04-22 18:38 | 53.73130 | 11.72929 | 2016 ft | 101 kts | 265° |
| 2026-04-22 18:38 | 53.72964 | 11.71780 | 2016 ft | 101 kts | 265° |
| 2026-04-22 18:39 | 53.72626 | 11.69486 | 2017 ft | 101 kts | 266° |
| 2026-04-22 18:39 | 53.72456 | 11.68353 | 2015 ft | 98 kts | 265° |
| 2026-04-22 18:39 | 53.72291 | 11.67235 | 2018 ft | 97 kts | 265° |
| 2026-04-22 18:39 | 53.72125 | 11.66134 | 2012 ft | 96 kts | 266° |
| 2026-04-22 18:40 | 53.71958 | 11.65054 | 2013 ft | 95 kts | 265° |
| 2026-04-22 18:40 | 53.71791 | 11.63968 | 2013 ft | 96 kts | 266° |
| 2026-04-22 18:40 | 53.71618 | 11.62876 | 2021 ft | 97 kts | 266° |
| 2026-04-22 18:40 | 53.71447 | 11.61768 | 2022 ft | 98 kts | 265° |
| 2026-04-22 18:41 | 53.71277 | 11.60652 | 2021 ft | 98 kts | 266° |
| 2026-04-22 18:41 | 53.71108 | 11.59533 | 2027 ft | 99 kts | 265° |
| 2026-04-22 18:41 | 53.70947 | 11.58400 | 2024 ft | 100 kts | 265° |
| 2026-04-22 18:41 | 53.70778 | 11.57262 | 2021 ft | 100 kts | 265° |
| 2026-04-22 18:42 | 53.70612 | 11.56118 | 2026 ft | 101 kts | 266° |
| 2026-04-22 18:42 | 53.70447 | 11.54985 | 2020 ft | 100 kts | 265° |
| 2026-04-22 18:42 | 53.70288 | 11.53848 | 2027 ft | 100 kts | 265° |
| 2026-04-22 18:42 | 53.70126 | 11.52703 | 2025 ft | 100 kts | 266° |
| 2026-04-22 18:43 | 53.69964 | 11.51558 | 2031 ft | 100 kts | 265° |
| 2026-04-22 18:43 | 53.69809 | 11.50412 | 2027 ft | 100 kts | 266° |
| 2026-04-22 18:43 | 53.69652 | 11.49263 | 2027 ft | 101 kts | 265° |
| 2026-04-22 18:43 | 53.69495 | 11.48114 | 2028 ft | 100 kts | 265° |
| 2026-04-22 18:44 | 53.69342 | 11.46973 | 2021 ft | 99 kts | 266° |
| 2026-04-22 18:44 | 53.69190 | 11.45837 | 2022 ft | 99 kts | 265° |
| 2026-04-22 18:44 | 53.69062 | 11.44779 | 2022 ft | 98 kts | 269° |
| 2026-04-22 18:45 | 53.69049 | 11.43648 | 2024 ft | 96 kts | 278° |
| 2026-04-22 18:45 | 53.69050 | 11.42521 | 2021 ft | 96 kts | 278° |
| 2026-04-22 18:45 | 53.69056 | 11.41386 | 2021 ft | 97 kts | 277° |
| 2026-04-22 18:45 | 53.69062 | 11.40250 | 2024 ft | 97 kts | 278° |
| 2026-04-22 18:46 | 53.69065 | 11.39120 | 2022 ft | 96 kts | 277° |
| 2026-04-22 18:46 | 53.69067 | 11.37984 | 2021 ft | 97 kts | 277° |
| 2026-04-22 18:46 | 53.69072 | 11.36852 | 2023 ft | 96 kts | 278° |
| 2026-04-22 18:46 | 53.69075 | 11.35722 | 2027 ft | 96 kts | 277° |
| 2026-04-22 18:47 | 53.69079 | 11.34595 | 2026 ft | 95 kts | 277° |
| 2026-04-22 18:47 | 53.69083 | 11.33486 | 2026 ft | 95 kts | 278° |
| 2026-04-22 18:47 | 53.69088 | 11.32374 | 2025 ft | 94 kts | 278° |
| 2026-04-22 18:47 | 53.69093 | 11.31285 | 2025 ft | 93 kts | 277° |
| 2026-04-22 18:48 | 53.69098 | 11.30191 | 2028 ft | 94 kts | 277° |
| 2026-04-22 18:48 | 53.69103 | 11.29075 | 2031 ft | 96 kts | 278° |
| 2026-04-22 18:48 | 53.69111 | 11.27934 | 2033 ft | 97 kts | 278° |
| 2026-04-22 18:48 | 53.69116 | 11.26793 | 2033 ft | 97 kts | 277° |
| 2026-04-22 18:49 | 53.69123 | 11.25657 | 2028 ft | 96 kts | 277° |
| 2026-04-22 18:49 | 53.69134 | 11.24536 | 2033 ft | 95 kts | 277° |
| 2026-04-22 18:49 | 53.69146 | 11.23414 | 2033 ft | 96 kts | 277° |
| 2026-04-22 18:49 | 53.69157 | 11.22286 | 2031 ft | 96 kts | 278° |
| 2026-04-22 18:50 | 53.69163 | 11.21156 | 2031 ft | 96 kts | 277° |
| 2026-04-22 18:50 | 53.69166 | 11.20026 | 2031 ft | 97 kts | 277° |
| 2026-04-22 18:50 | 53.69171 | 11.18893 | 2032 ft | 96 kts | 277° |
| 2026-04-22 18:50 | 53.69178 | 11.17769 | 2025 ft | 95 kts | 277° |
| 2026-04-22 18:51 | 53.69183 | 11.16653 | 2030 ft | 95 kts | 277° |
| 2026-04-22 18:51 | 53.69197 | 11.15543 | 2030 ft | 94 kts | 278° |
| 2026-04-22 18:51 | 53.69209 | 11.14435 | 2029 ft | 95 kts | 277° |
| 2026-04-22 18:51 | 53.69225 | 11.13323 | 2032 ft | 95 kts | 277° |
| 2026-04-22 18:52 | 53.69242 | 11.12199 | 2034 ft | 96 kts | 278° |
| 2026-04-22 18:52 | 53.69257 | 11.11066 | 2033 ft | 97 kts | 278° |
| 2026-04-22 18:52 | 53.69270 | 11.09941 | 2034 ft | 97 kts | 277° |
| 2026-04-22 18:52 | 53.69283 | 11.08803 | 2031 ft | 97 kts | 277° |
| 2026-04-22 18:53 | 53.69293 | 11.07666 | 2028 ft | 96 kts | 277° |
| 2026-04-22 18:53 | 53.69304 | 11.06547 | 2028 ft | 95 kts | 277° |
| 2026-04-22 18:53 | 53.69320 | 11.05429 | 2030 ft | 95 kts | 278° |
| 2026-04-22 18:53 | 53.69334 | 11.04309 | 2023 ft | 96 kts | 277° |
| 2026-04-22 18:54 | 53.69347 | 11.03182 | 2031 ft | 96 kts | 278° |
| 2026-04-22 18:54 | 53.69357 | 11.02053 | 2029 ft | 97 kts | 278° |
| 2026-04-22 18:54 | 53.69367 | 11.00918 | 2029 ft | 97 kts | 277° |
| 2026-04-22 18:54 | 53.69383 | 10.99785 | 2031 ft | 96 kts | 277° |
| 2026-04-22 18:55 | 53.69402 | 10.98649 | 2030 ft | 97 kts | 277° |
| 2026-04-22 18:55 | 53.69425 | 10.97505 | 2033 ft | 98 kts | 278° |
| 2026-04-22 18:55 | 53.69447 | 10.96356 | 2033 ft | 98 kts | 278° |
| 2026-04-22 18:55 | 53.69465 | 10.95210 | 2031 ft | 98 kts | 278° |
| 2026-04-22 18:56 | 53.69482 | 10.94065 | 2026 ft | 98 kts | 277° |
| 2026-04-22 18:56 | 53.69504 | 10.92921 | 2030 ft | 98 kts | 278° |
| 2026-04-22 18:56 | 53.69524 | 10.91777 | 2027 ft | 97 kts | 278° |
| 2026-04-22 18:56 | 53.69546 | 10.90628 | 2026 ft | 98 kts | 277° |
| 2026-04-22 18:57 | 53.69567 | 10.89495 | 2024 ft | 97 kts | 277° |
| 2026-04-22 18:57 | 53.69589 | 10.88353 | 2029 ft | 97 kts | 278° |
| 2026-04-22 18:57 | 53.69608 | 10.87208 | 2028 ft | 98 kts | 277° |
| 2026-04-22 18:57 | 53.69628 | 10.86060 | 2024 ft | 98 kts | 277° |
| 2026-04-22 18:58 | 53.69657 | 10.84913 | 2027 ft | 98 kts | 278° |
| 2026-04-22 18:58 | 53.69681 | 10.83753 | 2029 ft | 100 kts | 277° |
| 2026-04-22 18:58 | 53.69707 | 10.82581 | 2028 ft | 100 kts | 277° |
| 2026-04-22 18:58 | 53.69726 | 10.81410 | 2030 ft | 100 kts | 277° |
| 2026-04-22 18:59 | 53.69748 | 10.80235 | 2029 ft | 100 kts | 277° |
| 2026-04-22 18:59 | 53.69772 | 10.79072 | 2029 ft | 99 kts | 277° |
| 2026-04-22 18:59 | 53.69714 | 10.77898 | 2019 ft | 105 kts | 259° |
| 2026-04-22 18:59 | 53.69252 | 10.76919 | 2015 ft | 112 kts | 225° |
| 2026-04-22 19:00 | 53.68858 | 10.76377 | 2022 ft | 109 kts | 230° |
| 2026-04-22 19:00 | 53.68117 | 10.75204 | 2023 ft | 110 kts | 230° |
| 2026-04-22 19:00 | 53.67553 | 10.74346 | 2029 ft | 110 kts | 230° |
| 2026-04-22 19:00 | 53.66994 | 10.73483 | 2032 ft | 111 kts | 231° |
| 2026-04-22 19:01 | 53.66418 | 10.72587 | 2031 ft | 111 kts | 230° |
| 2026-04-22 19:01 | 53.65855 | 10.71719 | 2031 ft | 111 kts | 230° |
| 2026-04-22 19:01 | 53.65294 | 10.70837 | 2033 ft | 110 kts | 231° |
| 2026-04-22 19:01 | 53.64735 | 10.69974 | 2032 ft | 109 kts | 230° |
| 2026-04-22 19:02 | 53.64178 | 10.69118 | 2033 ft | 108 kts | 230° |
| 2026-04-22 19:02 | 53.63628 | 10.68271 | 2031 ft | 106 kts | 231° |
| 2026-04-22 19:02 | 53.63074 | 10.67434 | 2033 ft | 107 kts | 230° |
| 2026-04-22 19:02 | 53.62519 | 10.66590 | 2030 ft | 107 kts | 230° |
| 2026-04-22 19:03 | 53.61971 | 10.65747 | 2030 ft | 106 kts | 230° |
| 2026-04-22 19:03 | 53.61432 | 10.64922 | 2039 ft | 104 kts | 230° |
| 2026-04-22 19:03 | 53.60901 | 10.64119 | 2035 ft | 105 kts | 230° |
| 2026-04-22 19:03 | 53.60346 | 10.63276 | 2033 ft | 106 kts | 230° |
| 2026-04-22 19:04 | 53.59804 | 10.62442 | 2036 ft | 105 kts | 230° |
| 2026-04-22 19:04 | 53.59267 | 10.61619 | 2041 ft | 105 kts | 230° |
| 2026-04-22 19:04 | 53.58721 | 10.60798 | 2041 ft | 105 kts | 231° |
| 2026-04-22 19:04 | 53.58176 | 10.59969 | 2033 ft | 105 kts | 230° |
| 2026-04-22 19:05 | 53.57642 | 10.59153 | 2039 ft | 103 kts | 230° |
| 2026-04-22 19:05 | 53.57112 | 10.58342 | 2041 ft | 103 kts | 230° |
| 2026-04-22 19:05 | 53.56582 | 10.57515 | 2044 ft | 104 kts | 231° |
| 2026-04-22 19:05 | 53.56058 | 10.56685 | 2046 ft | 102 kts | 231° |
| 2026-04-22 19:06 | 53.55762 | 10.55677 | 2037 ft | 93 kts | 270° |
| 2026-04-22 19:06 | 53.55756 | 10.54599 | 2044 ft | 94 kts | 274° |
| 2026-04-22 19:06 | 53.55723 | 10.53505 | 2046 ft | 96 kts | 275° |
| 2026-04-22 19:07 | 53.55677 | 10.51258 | 2051 ft | 96 kts | 275° |
| 2026-04-22 19:07 | 53.55662 | 10.50135 | 2007 ft | 99 kts | 274° |
| 2026-04-22 19:07 | 53.55651 | 10.48983 | 1975 ft | 97 kts | 274° |
| 2026-04-22 19:07 | 53.55634 | 10.47861 | 1978 ft | 95 kts | 274° |
| 2026-04-22 19:08 | 53.55606 | 10.46748 | 1979 ft | 95 kts | 274° |
| 2026-04-22 19:08 | 53.55588 | 10.45633 | 1992 ft | 95 kts | 274° |
| 2026-04-22 19:08 | 53.55568 | 10.44522 | 1991 ft | 95 kts | 274° |
| 2026-04-22 19:08 | 53.55551 | 10.43407 | 1992 ft | 95 kts | 275° |
| 2026-04-22 19:09 | 53.55523 | 10.42303 | 1990 ft | 94 kts | 274° |
| 2026-04-22 19:09 | 53.55496 | 10.41198 | 1989 ft | 94 kts | 274° |
| 2026-04-22 19:09 | 53.55477 | 10.40468 | 1987 ft | 95 kts | 274° |
| 2026-04-22 19:09 | 53.55455 | 10.38972 | 1993 ft | 96 kts | 274° |
| 2026-04-22 19:10 | 53.55458 | 10.37860 | 1995 ft | 95 kts | 277° |
| 2026-04-22 19:10 | 53.55465 | 10.36752 | 1993 ft | 94 kts | 276° |
| 2026-04-22 19:10 | 53.55463 | 10.35652 | 1994 ft | 94 kts | 276° |
| 2026-04-22 19:10 | 53.55465 | 10.34546 | 1990 ft | 95 kts | 277° |
| 2026-04-22 19:11 | 53.55460 | 10.33422 | 1994 ft | 96 kts | 276° |
| 2026-04-22 19:11 | 53.55467 | 10.32293 | 1998 ft | 97 kts | 276° |
| 2026-04-22 19:11 | 53.55474 | 10.31164 | 1999 ft | 98 kts | 276° |
| 2026-04-22 19:11 | 53.55484 | 10.30008 | 2001 ft | 97 kts | 277° |
| 2026-04-22 19:12 | 53.55496 | 10.28880 | 2003 ft | 98 kts | 276° |
| 2026-04-22 19:12 | 53.55502 | 10.27757 | 2000 ft | 97 kts | 276° |
| 2026-04-22 19:12 | 53.55503 | 10.26627 | 2000 ft | 96 kts | 276° |
| 2026-04-22 19:12 | 53.55507 | 10.25510 | 2000 ft | 95 kts | 276° |
| 2026-04-22 19:13 | 53.55505 | 10.24394 | 1994 ft | 95 kts | 276° |
| 2026-04-22 19:13 | 53.55498 | 10.23272 | 2001 ft | 96 kts | 276° |
| 2026-04-22 19:13 | 53.55503 | 10.22137 | 2002 ft | 97 kts | 278° |
| 2026-04-22 19:13 | 53.55595 | 10.21032 | 1998 ft | 94 kts | 288° |
| 2026-04-22 19:14 | 53.55742 | 10.19961 | 2000 ft | 94 kts | 287° |
| 2026-04-22 19:14 | 53.55879 | 10.18882 | 1999 ft | 94 kts | 288° |
| 2026-04-22 19:14 | 53.56004 | 10.17807 | 1998 ft | 93 kts | 287° |
| 2026-04-22 19:14 | 53.56128 | 10.16733 | 1997 ft | 94 kts | 287° |
| 2026-04-22 19:15 | 53.56208 | 10.16021 | 1992 ft | 94 kts | 287° |
| 2026-04-22 19:15 | 53.56605 | 10.14803 | 1985 ft | 90 kts | 312° |
| 2026-04-22 19:15 | 53.56970 | 10.13949 | 1995 ft | 90 kts | 306° |
| 2026-04-22 19:15 | 53.57068 | 10.12883 | 1923 ft | 102 kts | 262° |
| 2026-04-22 19:16 | 53.56565 | 10.12012 | 1942 ft | 109 kts | 213° |
| 2026-04-22 19:16 | 53.55812 | 10.11824 | 1942 ft | 117 kts | 178° |
| 2026-04-22 19:16 | 53.55099 | 10.12510 | 1899 ft | 120 kts | 128° |
| 2026-04-22 19:16 | 53.54898 | 10.13790 | 1898 ft | 112 kts | 78° |
| 2026-04-22 19:17 | 53.55030 | 10.14591 | 1953 ft | 103 kts | 63° |
| 2026-04-22 19:17 | 53.55340 | 10.15647 | 1993 ft | 97 kts | 45° |
| 2026-04-22 19:17 | 53.55875 | 10.16222 | 2014 ft | 89 kts | 5° |
| 2026-04-22 19:17 | 53.56460 | 10.15987 | 1928 ft | 89 kts | 329° |
| 2026-04-22 19:18 | 53.56923 | 10.15319 | 1875 ft | 85 kts | 321° |
| 2026-04-22 19:18 | 53.57380 | 10.14686 | 1805 ft | 85 kts | 323° |
| 2026-04-22 19:18 | 53.57748 | 10.13947 | 1750 ft | 86 kts | 294° |
| 2026-04-22 19:18 | 53.57621 | 10.12916 | 1640 ft | 100 kts | 241° |
| 2026-04-22 19:19 | 53.56963 | 10.12484 | 1554 ft | 111 kts | 180° |
| 2026-04-22 19:19 | 53.56316 | 10.13165 | 1480 ft | 112 kts | 122° |
| 2026-04-22 19:19 | 53.56204 | 10.14387 | 1411 ft | 103 kts | 70° |
| 2026-04-22 19:19 | 53.56619 | 10.15245 | 1321 ft | 91 kts | 17° |
| 2026-04-22 19:20 | 53.57200 | 10.15177 | 1242 ft | 84 kts | 333° |
| 2026-04-22 19:20 | 53.57656 | 10.14611 | 1211 ft | 81 kts | 321° |
| 2026-04-22 19:20 | 53.58105 | 10.14076 | 1216 ft | 76 kts | 327° |
| 2026-04-22 19:20 | 53.58550 | 10.13631 | 1243 ft | 73 kts | 326° |
| 2026-04-22 19:21 | 53.58960 | 10.13199 | 1215 ft | 68 kts | 327° |
| 2026-04-22 19:21 | 53.59388 | 10.12752 | 1194 ft | 72 kts | 326° |
| 2026-04-22 19:21 | 53.59795 | 10.12316 | 1218 ft | 71 kts | 327° |
| 2026-04-22 19:21 | 53.60236 | 10.11905 | 1220 ft | 72 kts | 329° |
| 2026-04-22 19:22 | 53.60671 | 10.11520 | 1253 ft | 69 kts | 331° |
| 2026-04-22 19:22 | 53.61114 | 10.11164 | 1252 ft | 71 kts | 333° |
| 2026-04-22 19:22 | 53.61572 | 10.10862 | 1256 ft | 72 kts | 335° |
| 2026-04-22 19:22 | 53.62059 | 10.10542 | 1239 ft | 80 kts | 335° |
| 2026-04-22 19:23 | 53.62587 | 10.10183 | 1309 ft | 81 kts | 331° |
| 2026-04-22 19:23 | 53.63094 | 10.09759 | 1316 ft | 84 kts | 328° |
| 2026-04-22 19:23 | 53.63535 | 10.09117 | 1280 ft | 87 kts | 309° |
| 2026-04-22 19:23 | 53.63910 | 10.08250 | 1172 ft | 92 kts | 308° |
| 2026-04-22 19:24 | 53.64280 | 10.07371 | 1140 ft | 91 kts | 307° |
| 2026-04-22 19:24 | 53.64607 | 10.06471 | 1071 ft | 90 kts | 302° |
| 2026-04-22 19:24 | 53.64926 | 10.05568 | 930 ft | 91 kts | 301° |
| 2026-04-22 19:24 | 53.65133 | 10.04581 | 826 ft | 89 kts | 284° |
| 2026-04-22 19:25 | 53.65058 | 10.03541 | 675 ft | 94 kts | 256° |
| 2026-04-22 19:25 | 53.64789 | 10.02516 | 503 ft | 96 kts | 246° |
| 2026-04-22 19:25 | 53.64410 | 10.01592 | 327 ft | 96 kts | 236° |
| 2026-04-22 19:25 | 53.63983 | 10.00727 | 181 ft | 94 kts | 234° |
| 2026-04-22 19:26 | 53.63572 | 9.99903 | 54 ft | 87 kts | 233° |
| 2026-04-22 19:26 | 53.63269 | 9.99276 | 40 ft | 40 kts | 229° |
| 2026-04-22 19:26 | 53.63143 | 9.99036 | 40 ft | 27 kts | 231° |
| 2026-04-22 19:26 | 53.63013 | 9.98775 | 39 ft | 33 kts | 232° |
| 2026-04-22 19:27 | 53.62860 | 9.98524 | 38 ft | 27 kts | 206° |
| 2026-04-22 19:27 | 53.62706 | 9.98493 | 40 ft | 14 kts | 131° |
| 2026-04-22 19:27 | 53.62696 | 9.98543 | 40 ft | 0 kts | 84° |
| 2026-04-22 19:28 | 53.62707 | 9.98582 | 40 ft | 10 kts | 53° |
| 2026-04-22 19:28 | 53.62752 | 9.98682 | 40 ft | 7 kts | 78° |
| 2026-04-22 19:28 | 53.62723 | 9.98742 | 40 ft | 4 kts | 115° |
| 2026-04-22 19:29 | 53.62703 | 9.98771 | 40 ft | 8 kts | 153° |
| 2026-04-22 19:29 | 53.62682 | 9.98789 | 40 ft | 0 kts | 153° |